sensor_id;sensor_type;location;lat;lon;timestamp;pressure;altitude;pressure_sealevel;temperature;humidity
12182;BME280;6154;51.550;12.138;2023-05-03T00:00:54;101642.09;;;11.50;49.83
12182;BME280;6154;51.550;12.138;2023-05-03T00:03:22;101640.03;;;11.35;49.91
12182;BME280;6154;51.550;12.138;2023-05-03T00:05:51;101631.69;;;11.22;50.04
12182;BME280;6154;51.550;12.138;2023-05-03T00:08:19;101635.72;;;11.09;50.00
12182;BME280;6154;51.550;12.138;2023-05-03T00:10:47;101644.72;;;11.05;49.63
12182;BME280;6154;51.550;12.138;2023-05-03T00:13:15;101641.38;;;11.00;49.65
12182;BME280;6154;51.550;12.138;2023-05-03T00:15:44;101644.13;;;10.97;49.69
12182;BME280;6154;51.550;12.138;2023-05-03T00:18:13;101635.53;;;10.90;50.01
12182;BME280;6154;51.550;12.138;2023-05-03T00:20:41;101638.59;;;10.79;50.48
12182;BME280;6154;51.550;12.138;2023-05-03T00:23:09;101634.53;;;10.69;50.29
12182;BME280;6154;51.550;12.138;2023-05-03T00:25:38;101642.72;;;10.63;50.23
12182;BME280;6154;51.550;12.138;2023-05-03T00:28:06;101637.75;;;10.54;50.61
12182;BME280;6154;51.550;12.138;2023-05-03T00:30:34;101635.09;;;10.54;50.39
12182;BME280;6154;51.550;12.138;2023-05-03T00:33:03;101628.19;;;10.50;50.29
12182;BME280;6154;51.550;12.138;2023-05-03T00:35:32;101635.38;;;10.46;50.25
12182;BME280;6154;51.550;12.138;2023-05-03T00:38:00;101625.75;;;10.44;50.02
12182;BME280;6154;51.550;12.138;2023-05-03T00:40:29;101633.66;;;10.45;49.83
12182;BME280;6154;51.550;12.138;2023-05-03T00:42:57;101625.00;;;10.40;50.28
12182;BME280;6154;51.550;12.138;2023-05-03T00:45:26;101628.62;;;10.38;50.28
12182;BME280;6154;51.550;12.138;2023-05-03T00:47:54;101634.03;;;10.34;50.24
12182;BME280;6154;51.550;12.138;2023-05-03T00:50:22;101627.88;;;10.34;49.85
12182;BME280;6154;51.550;12.138;2023-05-03T00:52:52;101630.59;;;10.31;50.31
12182;BME280;6154;51.550;12.138;2023-05-03T00:55:20;101629.84;;;10.27;50.33
12182;BME280;6154;51.550;12.138;2023-05-03T00:57:49;101638.81;;;10.23;50.32
12182;BME280;6154;51.550;12.138;2023-05-03T01:00:18;101631.84;;;10.19;50.36
12182;BME280;6154;51.550;12.138;2023-05-03T01:02:46;101635.62;;;10.12;50.54
12182;BME280;6154;51.550;12.138;2023-05-03T01:05:15;101639.19;;;10.11;50.27
12182;BME280;6154;51.550;12.138;2023-05-03T01:07:57;101642.09;;;10.03;50.57
12182;BME280;6154;51.550;12.138;2023-05-03T01:10:37;101645.00;;;9.96;50.73
12182;BME280;6154;51.550;12.138;2023-05-03T01:13:13;101641.53;;;9.94;51.30
12182;BME280;6154;51.550;12.138;2023-05-03T01:15:58;101643.69;;;9.81;51.30
12182;BME280;6154;51.550;12.138;2023-05-03T01:18:29;101639.53;;;9.74;50.90
12182;BME280;6154;51.550;12.138;2023-05-03T01:20:59;101629.91;;;9.71;50.84
12182;BME280;6154;51.550;12.138;2023-05-03T01:23:32;101636.16;;;9.69;50.79
12182;BME280;6154;51.550;12.138;2023-05-03T01:26:20;101640.69;;;9.65;50.94
12182;BME280;6154;51.550;12.138;2023-05-03T01:28:49;101634.47;;;9.66;51.30
12182;BME280;6154;51.550;12.138;2023-05-03T01:31:21;101646.16;;;9.59;51.00
12182;BME280;6154;51.550;12.138;2023-05-03T01:34:04;101640.97;;;9.56;51.36
12182;BME280;6154;51.550;12.138;2023-05-03T01:36:35;101641.94;;;9.54;51.15
12182;BME280;6154;51.550;12.138;2023-05-03T01:39:07;101634.94;;;9.51;51.08
12182;BME280;6154;51.550;12.138;2023-05-03T01:41:39;101636.78;;;9.49;51.02
12182;BME280;6154;51.550;12.138;2023-05-03T01:44:09;101636.87;;;9.46;51.01
12182;BME280;6154;51.550;12.138;2023-05-03T01:46:42;101639.53;;;9.46;50.85
12182;BME280;6154;51.550;12.138;2023-05-03T01:49:10;101642.22;;;9.44;51.20
12182;BME280;6154;51.550;12.138;2023-05-03T01:51:39;101642.28;;;9.43;50.62
12182;BME280;6154;51.550;12.138;2023-05-03T01:54:07;101639.63;;;9.43;50.52
12182;BME280;6154;51.550;12.138;2023-05-03T01:56:37;101648.41;;;9.43;50.31
12182;BME280;6154;51.550;12.138;2023-05-03T01:59:05;101645.00;;;9.40;50.47
12182;BME280;6154;51.550;12.138;2023-05-03T02:01:34;101641.53;;;9.38;50.43
12182;BME280;6154;51.550;12.138;2023-05-03T02:04:02;101643.47;;;9.33;50.92
12182;BME280;6154;51.550;12.138;2023-05-03T02:06:30;101649.69;;;9.30;50.80
12182;BME280;6154;51.550;12.138;2023-05-03T02:08:59;101655.94;;;9.28;50.84
12182;BME280;6154;51.550;12.138;2023-05-03T02:11:27;101663.03;;;9.26;50.50
12182;BME280;6154;51.550;12.138;2023-05-03T02:13:56;101662.28;;;9.20;51.05
12182;BME280;6154;51.550;12.138;2023-05-03T02:16:28;101672.16;;;9.15;50.89
12182;BME280;6154;51.550;12.138;2023-05-03T02:18:56;101666.09;;;9.12;51.34
12182;BME280;6154;51.550;12.138;2023-05-03T02:21:25;101663.56;;;9.07;51.23
12182;BME280;6154;51.550;12.138;2023-05-03T02:23:53;101672.41;;;9.06;51.23
12182;BME280;6154;51.550;12.138;2023-05-03T02:26:22;101673.31;;;9.05;50.96
12182;BME280;6154;51.550;12.138;2023-05-03T02:28:50;101664.59;;;9.03;50.96
12182;BME280;6154;51.550;12.138;2023-05-03T02:31:19;101672.53;;;9.02;51.16
12182;BME280;6154;51.550;12.138;2023-05-03T02:33:48;101675.31;;;8.97;51.38
12182;BME280;6154;51.550;12.138;2023-05-03T02:36:16;101674.59;;;8.92;51.67
12182;BME280;6154;51.550;12.138;2023-05-03T02:38:45;101668.56;;;8.87;51.68
12182;BME280;6154;51.550;12.138;2023-05-03T02:41:13;101678.28;;;8.85;51.95
12182;BME280;6154;51.550;12.138;2023-05-03T02:43:42;101681.84;;;8.84;51.87
12182;BME280;6154;51.550;12.138;2023-05-03T02:46:11;101680.19;;;8.80;52.02
12182;BME280;6154;51.550;12.138;2023-05-03T02:48:41;101681.94;;;8.79;52.00
12182;BME280;6154;51.550;12.138;2023-05-03T02:51:10;101683.72;;;8.79;52.00
12182;BME280;6154;51.550;12.138;2023-05-03T02:53:38;101681.09;;;8.79;51.99
12182;BME280;6154;51.550;12.138;2023-05-03T02:56:06;101692.56;;;8.78;52.28
12182;BME280;6154;51.550;12.138;2023-05-03T02:58:35;101689.88;;;8.79;52.10
12182;BME280;6154;51.550;12.138;2023-05-03T03:01:04;101684.69;;;8.76;52.19
12182;BME280;6154;51.550;12.138;2023-05-03T03:03:32;101689.09;;;8.76;52.22
12182;BME280;6154;51.550;12.138;2023-05-03T03:06:02;101686.50;;;8.74;52.47
12182;BME280;6154;51.550;12.138;2023-05-03T03:08:31;101689.19;;;8.73;52.36
12182;BME280;6154;51.550;12.138;2023-05-03T03:10:59;101691.88;;;8.70;53.15
12182;BME280;6154;51.550;12.138;2023-05-03T03:13:28;101690.13;;;8.70;52.67
12182;BME280;6154;51.550;12.138;2023-05-03T03:15:58;101684.87;;;8.69;52.37
12182;BME280;6154;51.550;12.138;2023-05-03T03:18:26;101685.78;;;8.68;52.95
12182;BME280;6154;51.550;12.138;2023-05-03T03:20:55;101695.44;;;8.69;52.50
12182;BME280;6154;51.550;12.138;2023-05-03T03:23:24;101685.69;;;8.71;53.43
12182;BME280;6154;51.550;12.138;2023-05-03T03:25:52;101688.31;;;8.72;52.58
12182;BME280;6154;51.550;12.138;2023-05-03T03:28:21;101690.06;;;8.72;52.36
12182;BME280;6154;51.550;12.138;2023-05-03T03:30:49;101689.16;;;8.74;52.49
12182;BME280;6154;51.550;12.138;2023-05-03T03:33:19;101691.84;;;8.71;52.61
12182;BME280;6154;51.550;12.138;2023-05-03T03:35:51;101691.06;;;8.68;53.19
12182;BME280;6154;51.550;12.138;2023-05-03T03:38:20;101691.81;;;8.73;52.69
12182;BME280;6154;51.550;12.138;2023-05-03T03:40:50;101692.66;;;8.75;52.59
12182;BME280;6154;51.550;12.138;2023-05-03T03:43:20;101696.16;;;8.75;52.93
12182;BME280;6154;51.550;12.138;2023-05-03T03:45:48;101703.00;;;8.81;52.60
12182;BME280;6154;51.550;12.138;2023-05-03T03:48:16;101697.75;;;8.81;52.85
12182;BME280;6154;51.550;12.138;2023-05-03T03:50:46;101698.53;;;8.84;53.16
12182;BME280;6154;51.550;12.138;2023-05-03T03:53:14;101699.41;;;8.85;53.35
12182;BME280;6154;51.550;12.138;2023-05-03T03:55:43;101711.59;;;8.89;53.28
12182;BME280;6154;51.550;12.138;2023-05-03T03:58:14;101710.69;;;8.90;53.26
12182;BME280;6154;51.550;12.138;2023-05-03T04:00:42;101711.59;;;8.89;54.03
12182;BME280;6154;51.550;12.138;2023-05-03T04:03:11;101721.19;;;8.93;53.19
12182;BME280;6154;51.550;12.138;2023-05-03T04:05:39;101729.00;;;8.96;52.73
12182;BME280;6154;51.550;12.138;2023-05-03T04:08:08;101717.50;;;8.99;52.93
12182;BME280;6154;51.550;12.138;2023-05-03T04:10:36;101727.94;;;9.03;52.70
12182;BME280;6154;51.550;12.138;2023-05-03T04:13:08;101731.34;;;9.07;52.85
12182;BME280;6154;51.550;12.138;2023-05-03T04:15:37;101735.63;;;9.11;52.89
12182;BME280;6154;51.550;12.138;2023-05-03T04:18:05;101743.44;;;9.15;52.67
12182;BME280;6154;51.550;12.138;2023-05-03T04:20:35;101734.50;;;9.19;52.67
12182;BME280;6154;51.550;12.138;2023-05-03T04:23:04;101737.16;;;9.19;53.08
12182;BME280;6154;51.550;12.138;2023-05-03T04:25:32;101743.09;;;9.28;52.96
12182;BME280;6154;51.550;12.138;2023-05-03T04:28:03;101741.31;;;9.28;53.25
12182;BME280;6154;51.550;12.138;2023-05-03T04:30:33;101746.44;;;9.34;53.17
12182;BME280;6154;51.550;12.138;2023-05-03T04:33:04;101752.59;;;9.35;53.47
12182;BME280;6154;51.550;12.138;2023-05-03T04:35:32;101753.25;;;9.43;53.08
12182;BME280;6154;51.550;12.138;2023-05-03T04:38:03;101763.72;;;9.46;53.22
12182;BME280;6154;51.550;12.138;2023-05-03T04:40:31;101770.66;;;9.48;53.74
12182;BME280;6154;51.550;12.138;2023-05-03T04:43:00;101767.91;;;9.53;53.03
12182;BME280;6154;51.550;12.138;2023-05-03T04:45:29;101771.28;;;9.58;53.10
12182;BME280;6154;51.550;12.138;2023-05-03T04:47:57;101767.81;;;9.56;53.71
12182;BME280;6154;51.550;12.138;2023-05-03T04:50:27;101771.16;;;9.61;53.73
12182;BME280;6154;51.550;12.138;2023-05-03T04:52:56;101768.31;;;9.69;53.30
12182;BME280;6154;51.550;12.138;2023-05-03T04:55:24;101775.09;;;9.77;53.17
12182;BME280;6154;51.550;12.138;2023-05-03T04:57:56;101773.22;;;9.83;53.44
12182;BME280;6154;51.550;12.138;2023-05-03T05:00:24;101778.28;;;9.89;53.17
12182;BME280;6154;51.550;12.138;2023-05-03T05:02:54;101779.84;;;9.96;53.48
12182;BME280;6154;51.550;12.138;2023-05-03T05:05:23;101779.75;;;9.99;53.62
12182;BME280;6154;51.550;12.138;2023-05-03T05:07:52;101782.22;;;10.05;53.54
12182;BME280;6154;51.550;12.138;2023-05-03T05:10:20;101782.09;;;10.08;53.58
12182;BME280;6154;51.550;12.138;2023-05-03T05:12:50;101789.06;;;10.12;53.48
12182;BME280;6154;51.550;12.138;2023-05-03T05:15:18;101788.84;;;10.18;53.48
12182;BME280;6154;51.550;12.138;2023-05-03T05:17:47;101787.00;;;10.20;53.73
12182;BME280;6154;51.550;12.138;2023-05-03T05:20:17;101783.19;;;10.30;53.71
12182;BME280;6154;51.550;12.138;2023-05-03T05:22:46;101780.34;;;10.36;53.59
12182;BME280;6154;51.550;12.138;2023-05-03T05:25:15;101788.09;;;10.43;53.81
12182;BME280;6154;51.550;12.138;2023-05-03T05:27:43;101787.84;;;10.50;53.83
12182;BME280;6154;51.550;12.138;2023-05-03T05:30:12;101790.09;;;10.62;53.85
12182;BME280;6154;51.550;12.138;2023-05-03T05:32:41;101785.34;;;10.72;53.58
12182;BME280;6154;51.550;12.138;2023-05-03T05:35:10;101793.75;;;10.85;53.43
12182;BME280;6154;51.550;12.138;2023-05-03T05:37:38;101792.66;;;10.90;53.63
12182;BME280;6154;51.550;12.138;2023-05-03T05:40:07;101793.25;;;10.99;53.61
12182;BME280;6154;51.550;12.138;2023-05-03T05:42:38;101803.53;;;11.08;53.44
12182;BME280;6154;51.550;12.138;2023-05-03T05:45:07;101809.03;;;11.02;54.24
12182;BME280;6154;51.550;12.138;2023-05-03T05:47:35;101804.22;;;11.14;53.43
12182;BME280;6154;51.550;12.138;2023-05-03T05:50:06;101802.97;;;11.25;53.02
12182;BME280;6154;51.550;12.138;2023-05-03T05:52:45;101801.19;;;11.25;53.97
12182;BME280;6154;51.550;12.138;2023-05-03T05:55:14;101800.59;;;11.40;53.26
12182;BME280;6154;51.550;12.138;2023-05-03T05:57:45;101806.75;;;11.42;53.90
12182;BME280;6154;51.550;12.138;2023-05-03T06:00:15;101809.91;;;11.52;53.30
12182;BME280;6154;51.550;12.138;2023-05-03T06:02:44;101807.75;;;11.63;53.48
12182;BME280;6154;51.550;12.138;2023-05-03T06:05:13;101806.16;;;11.83;53.15
12182;BME280;6154;51.550;12.138;2023-05-03T06:07:41;101813.72;;;11.93;52.99
12182;BME280;6154;51.550;12.138;2023-05-03T06:10:10;101814.09;;;12.06;52.71
12182;BME280;6154;51.550;12.138;2023-05-03T06:12:39;101819.13;;;12.14;52.61
12182;BME280;6154;51.550;12.138;2023-05-03T06:15:11;101817.13;;;12.19;52.63
12182;BME280;6154;51.550;12.138;2023-05-03T06:17:39;101816.28;;;12.40;52.55
12182;BME280;6154;51.550;12.138;2023-05-03T06:20:08;101819.41;;;12.50;52.20
12182;BME280;6154;51.550;12.138;2023-05-03T06:22:39;101823.00;;;12.71;51.88
12182;BME280;6154;51.550;12.138;2023-05-03T06:25:08;101820.72;;;12.83;52.05
12182;BME280;6154;51.550;12.138;2023-05-03T06:27:44;101817.47;;;12.97;51.62
12182;BME280;6154;51.550;12.138;2023-05-03T06:30:14;101825.97;;;13.05;52.06
12182;BME280;6154;51.550;12.138;2023-05-03T06:32:46;101821.78;;;13.00;52.18
12182;BME280;6154;51.550;12.138;2023-05-03T06:35:15;101819.16;;;13.20;51.80
12182;BME280;6154;51.550;12.138;2023-05-03T06:37:45;101834.78;;;13.28;51.36
12182;BME280;6154;51.550;12.138;2023-05-03T06:40:13;101824.94;;;13.30;51.36
12182;BME280;6154;51.550;12.138;2023-05-03T06:42:42;101820.69;;;13.46;51.30
12182;BME280;6154;51.550;12.138;2023-05-03T06:45:11;101833.28;;;13.41;51.48
12182;BME280;6154;51.550;12.138;2023-05-03T06:47:41;101834.13;;;13.62;51.27
12182;BME280;6154;51.550;12.138;2023-05-03T06:50:10;101825.63;;;13.93;51.07
12182;BME280;6154;51.550;12.138;2023-05-03T06:52:38;101821.53;;;14.04;50.90
12182;BME280;6154;51.550;12.138;2023-05-03T06:55:07;101827.13;;;14.17;50.68
12182;BME280;6154;51.550;12.138;2023-05-03T06:57:36;101826.78;;;14.44;50.53
12182;BME280;6154;51.550;12.138;2023-05-03T07:00:05;101823.28;;;14.60;50.38
12182;BME280;6154;51.550;12.138;2023-05-03T07:02:33;101832.00;;;14.64;49.75
12182;BME280;6154;51.550;12.138;2023-05-03T07:05:04;101826.00;;;14.78;49.82
12182;BME280;6154;51.550;12.138;2023-05-03T07:07:33;101825.44;;;14.88;49.80
12182;BME280;6154;51.550;12.138;2023-05-03T07:10:01;101826.87;;;14.95;50.03
12182;BME280;6154;51.550;12.138;2023-05-03T07:12:30;101828.28;;;15.20;49.53
12182;BME280;6154;51.550;12.138;2023-05-03T07:14:58;101830.94;;;15.37;49.53
12182;BME280;6154;51.550;12.138;2023-05-03T07:17:27;101823.41;;;15.45;48.87
12182;BME280;6154;51.550;12.138;2023-05-03T07:19:56;101823.59;;;15.75;48.80
12182;BME280;6154;51.550;12.138;2023-05-03T07:22:25;101824.91;;;15.84;48.50
12182;BME280;6154;51.550;12.138;2023-05-03T07:24:53;101821.19;;;16.02;48.37
12182;BME280;6154;51.550;12.138;2023-05-03T07:27:25;101821.13;;;16.20;48.07
12182;BME280;6154;51.550;12.138;2023-05-03T07:29:53;101818.81;;;16.45;48.17
12182;BME280;6154;51.550;12.138;2023-05-03T07:32:21;101822.06;;;16.50;47.72
12182;BME280;6154;51.550;12.138;2023-05-03T07:34:50;101816.37;;;16.56;46.86
12182;BME280;6154;51.550;12.138;2023-05-03T07:37:19;101822.84;;;16.68;47.21
12182;BME280;6154;51.550;12.138;2023-05-03T07:39:49;101822.31;;;16.77;47.04
12182;BME280;6154;51.550;12.138;2023-05-03T07:42:18;101807.13;;;16.78;46.94
12182;BME280;6154;51.550;12.138;2023-05-03T07:44:46;101809.87;;;16.60;46.70
12182;BME280;6154;51.550;12.138;2023-05-03T07:47:14;101815.41;;;16.57;47.22
12182;BME280;6154;51.550;12.138;2023-05-03T07:49:43;101806.50;;;16.88;47.14
12182;BME280;6154;51.550;12.138;2023-05-03T07:52:11;101805.88;;;17.13;46.56
12182;BME280;6154;51.550;12.138;2023-05-03T07:54:39;101809.25;;;17.31;46.24
12182;BME280;6154;51.550;12.138;2023-05-03T07:57:10;101800.69;;;17.40;46.05
12182;BME280;6154;51.550;12.138;2023-05-03T07:59:38;101804.09;;;17.42;44.84
12182;BME280;6154;51.550;12.138;2023-05-03T08:02:06;101803.53;;;17.51;45.69
12182;BME280;6154;51.550;12.138;2023-05-03T08:04:35;101807.38;;;17.47;45.80
12182;BME280;6154;51.550;12.138;2023-05-03T08:07:03;101805.81;;;17.29;45.41
12182;BME280;6154;51.550;12.138;2023-05-03T08:09:32;101812.22;;;17.27;45.01
12182;BME280;6154;51.550;12.138;2023-05-03T08:12:01;101811.69;;;17.64;45.97
12182;BME280;6154;51.550;12.138;2023-05-03T08:14:30;101813.44;;;17.79;45.92
12182;BME280;6154;51.550;12.138;2023-05-03T08:16:59;101805.94;;;17.99;45.12
12182;BME280;6154;51.550;12.138;2023-05-03T08:19:27;101806.53;;;18.04;44.72
12182;BME280;6154;51.550;12.138;2023-05-03T08:21:56;101802.22;;;18.01;45.01
12182;BME280;6154;51.550;12.138;2023-05-03T08:24:24;101806.87;;;18.12;44.74
12182;BME280;6154;51.550;12.138;2023-05-03T08:26:53;101803.59;;;18.21;44.79
12182;BME280;6154;51.550;12.138;2023-05-03T08:29:21;101806.06;;;18.38;44.84
12182;BME280;6154;51.550;12.138;2023-05-03T08:31:51;101800.09;;;18.48;44.30
12182;BME280;6154;51.550;12.138;2023-05-03T08:34:20;101803.69;;;18.88;44.00
12182;BME280;6154;51.550;12.138;2023-05-03T08:36:48;101793.53;;;19.06;44.34
12182;BME280;6154;51.550;12.138;2023-05-03T08:39:16;101795.56;;;19.40;44.19
12182;BME280;6154;51.550;12.138;2023-05-03T08:41:46;101802.87;;;19.38;43.51
12182;BME280;6154;51.550;12.138;2023-05-03T08:44:19;101809.03;;;18.88;44.12
12182;BME280;6154;51.550;12.138;2023-05-03T08:46:48;101806.00;;;18.53;42.47
12182;BME280;6154;51.550;12.138;2023-05-03T08:49:18;101806.63;;;18.71;44.39
12182;BME280;6154;51.550;12.138;2023-05-03T08:51:48;101796.16;;;18.93;43.76
12182;BME280;6154;51.550;12.138;2023-05-03T08:54:16;101799.41;;;19.11;43.89
12182;BME280;6154;51.550;12.138;2023-05-03T08:56:46;101800.53;;;19.46;43.86
12182;BME280;6154;51.550;12.138;2023-05-03T08:59:15;101796.66;;;19.50;43.64
12182;BME280;6154;51.550;12.138;2023-05-03T09:01:44;101797.97;;;19.58;43.74
12182;BME280;6154;51.550;12.138;2023-05-03T09:04:12;101805.41;;;19.02;44.01
12182;BME280;6154;51.550;12.138;2023-05-03T09:06:42;101804.81;;;18.71;43.98
12182;BME280;6154;51.550;12.138;2023-05-03T09:09:10;101801.84;;;18.61;43.23
12182;BME280;6154;51.550;12.138;2023-05-03T09:11:39;101798.00;;;18.92;43.99
12182;BME280;6154;51.550;12.138;2023-05-03T09:14:09;101800.41;;;19.35;42.97
12182;BME280;6154;51.550;12.138;2023-05-03T09:16:38;101798.59;;;19.61;43.03
12182;BME280;6154;51.550;12.138;2023-05-03T09:19:07;101791.25;;;19.89;43.17
12182;BME280;6154;51.550;12.138;2023-05-03T09:21:39;101802.19;;;19.98;42.73
12182;BME280;6154;51.550;12.138;2023-05-03T09:24:16;101802.72;;;20.03;42.89
12182;BME280;6154;51.550;12.138;2023-05-03T09:26:46;101793.97;;;19.63;37.26
12182;BME280;6154;51.550;12.138;2023-05-03T09:29:27;101790.19;;;19.53;42.16
12182;BME280;6154;51.550;12.138;2023-05-03T09:32:00;101789.56;;;19.37;39.39
12182;BME280;6154;51.550;12.138;2023-05-03T09:34:31;101793.56;;;19.57;42.44
12182;BME280;6154;51.550;12.138;2023-05-03T09:37:00;101787.78;;;19.99;42.19
12182;BME280;6154;51.550;12.138;2023-05-03T09:39:30;101785.19;;;20.10;42.15
12182;BME280;6154;51.550;12.138;2023-05-03T09:41:58;101787.66;;;20.37;41.68
12182;BME280;6154;51.550;12.138;2023-05-03T09:44:40;101788.16;;;20.19;41.75
12182;BME280;6154;51.550;12.138;2023-05-03T09:47:09;101787.44;;;19.67;38.12
12182;BME280;6154;51.550;12.138;2023-05-03T09:49:38;101791.81;;;19.81;42.35
12182;BME280;6154;51.550;12.138;2023-05-03T09:52:07;101785.00;;;20.01;41.26
12182;BME280;6154;51.550;12.138;2023-05-03T09:54:37;101783.03;;;20.16;39.99
12182;BME280;6154;51.550;12.138;2023-05-03T09:57:07;101780.25;;;20.65;41.55
12182;BME280;6154;51.550;12.138;2023-05-03T09:59:36;101789.03;;;21.02;40.97
12182;BME280;6154;51.550;12.138;2023-05-03T10:02:06;101781.03;;;21.24;40.33
12182;BME280;6154;51.550;12.138;2023-05-03T10:04:39;101788.22;;;21.13;40.23
12182;BME280;6154;51.550;12.138;2023-05-03T10:07:11;101781.31;;;20.62;37.84
12182;BME280;6154;51.550;12.138;2023-05-03T10:09:43;101776.09;;;20.72;40.83
12182;BME280;6154;51.550;12.138;2023-05-03T10:12:12;101775.06;;;20.38;39.13
12182;BME280;6154;51.550;12.138;2023-05-03T10:14:45;101771.28;;;20.88;41.62
12182;BME280;6154;51.550;12.138;2023-05-03T10:17:17;101770.00;;;21.16;40.83
12182;BME280;6154;51.550;12.138;2023-05-03T10:20:12;101768.47;;;20.90;40.68
12182;BME280;6154;51.550;12.138;2023-05-03T10:23:11;101778.91;;;20.94;40.23
12182;BME280;6154;51.550;12.138;2023-05-03T10:26:11;101773.00;;;20.89;36.45
12182;BME280;6154;51.550;12.138;2023-05-03T10:28:40;101771.19;;;21.01;34.84
12182;BME280;6154;51.550;12.138;2023-05-03T10:34:20;101767.31;;;20.70;35.30
12182;BME280;6154;51.550;12.138;2023-05-03T10:36:50;101760.19;;;20.69;36.46
12182;BME280;6154;51.550;12.138;2023-05-03T10:39:20;101762.28;;;21.12;40.08
12182;BME280;6154;51.550;12.138;2023-05-03T10:42:01;101755.63;;;21.51;39.57
12182;BME280;6154;51.550;12.138;2023-05-03T10:44:37;101757.81;;;21.79;35.61
12182;BME280;6154;51.550;12.138;2023-05-03T10:47:09;101752.91;;;21.51;37.24
12182;BME280;6154;51.550;12.138;2023-05-03T10:49:39;101764.12;;;21.22;38.12
12182;BME280;6154;51.550;12.138;2023-05-03T10:52:44;101759.56;;;21.01;40.14
12182;BME280;6154;51.550;12.138;2023-05-03T10:55:14;101757.25;;;21.07;35.77
12182;BME280;6154;51.550;12.138;2023-05-03T10:57:47;101763.31;;;21.33;38.44
12182;BME280;6154;51.550;12.138;2023-05-03T11:00:19;101765.78;;;21.36;39.10
12182;BME280;6154;51.550;12.138;2023-05-03T11:03:12;101751.75;;;21.20;37.90
12182;BME280;6154;51.550;12.138;2023-05-03T11:05:50;101748.37;;;21.40;35.13
12182;BME280;6154;51.550;12.138;2023-05-03T11:08:21;101757.06;;;21.77;39.14
12182;BME280;6154;51.550;12.138;2023-05-03T11:10:57;101751.78;;;21.98;38.50
12182;BME280;6154;51.550;12.138;2023-05-03T11:13:28;101751.84;;;22.30;37.32
12182;BME280;6154;51.550;12.138;2023-05-03T11:15:56;101752.53;;;22.44;39.27
12182;BME280;6154;51.550;12.138;2023-05-03T11:18:25;101750.22;;;22.39;39.51
12182;BME280;6154;51.550;12.138;2023-05-03T11:20:54;101747.28;;;22.63;39.30
12182;BME280;6154;51.550;12.138;2023-05-03T11:23:24;101752.78;;;22.41;39.05
12182;BME280;6154;51.550;12.138;2023-05-03T11:25:53;101753.56;;;22.31;39.14
12182;BME280;6154;51.550;12.138;2023-05-03T11:28:22;101746.00;;;22.03;39.04
12182;BME280;6154;51.550;12.138;2023-05-03T11:30:52;101747.59;;;22.17;37.32
12182;BME280;6154;51.550;12.138;2023-05-03T11:33:20;101739.59;;;22.26;38.46
12182;BME280;6154;51.550;12.138;2023-05-03T11:35:49;101740.25;;;22.19;38.53
12182;BME280;6154;51.550;12.138;2023-05-03T11:38:17;101734.47;;;22.12;38.50
12182;BME280;6154;51.550;12.138;2023-05-03T11:40:45;101728.81;;;22.26;38.60
12182;BME280;6154;51.550;12.138;2023-05-03T11:43:13;101718.78;;;22.49;38.31
12182;BME280;6154;51.550;12.138;2023-05-03T11:45:46;101724.50;;;22.24;36.21
12182;BME280;6154;51.550;12.138;2023-05-03T11:48:17;101728.72;;;22.05;37.20
12182;BME280;6154;51.550;12.138;2023-05-03T11:50:46;101736.09;;;22.15;38.32
12182;BME280;6154;51.550;12.138;2023-05-03T11:53:18;101729.53;;;22.28;38.28
12182;BME280;6154;51.550;12.138;2023-05-03T11:55:48;101728.66;;;22.60;37.79
12182;BME280;6154;51.550;12.138;2023-05-03T11:58:18;101731.03;;;22.85;38.00
12182;BME280;6154;51.550;12.138;2023-05-03T12:00:48;101726.00;;;23.02;37.85
12182;BME280;6154;51.550;12.138;2023-05-03T12:03:20;101738.19;;;23.17;37.46
12182;BME280;6154;51.550;12.138;2023-05-03T12:05:54;101730.78;;;22.77;36.69
12182;BME280;6154;51.550;12.138;2023-05-03T12:08:27;101735.47;;;22.75;36.95
12182;BME280;6154;51.550;12.138;2023-05-03T12:10:59;101729.03;;;22.87;36.64
12182;BME280;6154;51.550;12.138;2023-05-03T12:13:31;101727.69;;;22.82;37.29
12182;BME280;6154;51.550;12.138;2023-05-03T12:16:06;101727.63;;;23.14;37.63
12182;BME280;6154;51.550;12.138;2023-05-03T12:21:16;101716.56;;;23.47;36.34
12182;BME280;6154;51.550;12.138;2023-05-03T12:23:49;101713.78;;;23.59;36.53
12182;BME280;6154;51.550;12.138;2023-05-03T12:26:22;101712.50;;;23.32;36.74
12182;BME280;6154;51.550;12.138;2023-05-03T12:28:52;101712.94;;;22.65;35.74
12182;BME280;6154;51.550;12.138;2023-05-03T12:31:22;101717.69;;;22.93;37.35
12182;BME280;6154;51.550;12.138;2023-05-03T12:33:57;101712.75;;;22.78;37.38
12182;BME280;6154;51.550;12.138;2023-05-03T12:36:45;101712.56;;;22.90;37.01
12182;BME280;6154;51.550;12.138;2023-05-03T12:39:15;101710.38;;;22.84;37.78
12182;BME280;6154;51.550;12.138;2023-05-03T12:41:50;101708.00;;;22.70;37.48
12182;BME280;6154;51.550;12.138;2023-05-03T12:44:37;101704.94;;;22.96;37.65
12182;BME280;6154;51.550;12.138;2023-05-03T12:47:09;101699.25;;;22.99;37.12
12182;BME280;6154;51.550;12.138;2023-05-03T12:49:43;101699.53;;;22.96;37.13
12182;BME280;6154;51.550;12.138;2023-05-03T12:52:12;101697.34;;;23.10;37.02
12182;BME280;6154;51.550;12.138;2023-05-03T12:54:43;101698.06;;;23.12;36.83
12182;BME280;6154;51.550;12.138;2023-05-03T12:57:15;101695.91;;;23.06;36.63
12182;BME280;6154;51.550;12.138;2023-05-03T12:59:50;101689.09;;;23.12;36.96
12182;BME280;6154;51.550;12.138;2023-05-03T13:02:30;101689.50;;;23.38;36.87
12182;BME280;6154;51.550;12.138;2023-05-03T13:05:04;101686.72;;;23.18;35.57
12182;BME280;6154;51.550;12.138;2023-05-03T13:07:46;101678.38;;;23.01;35.61
12182;BME280;6154;51.550;12.138;2023-05-03T13:10:22;101679.00;;;23.14;36.34
12182;BME280;6154;51.550;12.138;2023-05-03T13:12:50;101678.84;;;23.36;36.61
12182;BME280;6154;51.550;12.138;2023-05-03T13:15:19;101671.41;;;23.59;36.65